sensor_id;sensor_type;location;lat;lon;timestamp;pressure;altitude;pressure_sealevel;temperature;humidity
17254;BME280;32542;52.832;13.816;2023-04-15T00:01:47;100536.50;;;21.38;46.75
17254;BME280;32542;52.832;13.816;2023-04-15T00:04:50;100535.66;;;21.37;46.80
17254;BME280;32542;52.832;13.816;2023-04-15T00:07:55;100536.50;;;21.38;46.87
17254;BME280;32542;52.832;13.816;2023-04-15T00:10:58;100533.06;;;21.36;46.88
17254;BME280;32542;52.832;13.816;2023-04-15T00:14:03;100531.38;;;21.35;46.82
17254;BME280;32542;52.832;13.816;2023-04-15T00:17:06;100526.97;;;21.34;46.87
17254;BME280;32542;52.832;13.816;2023-04-15T00:20:10;100518.13;;;21.33;46.81
17254;BME280;32542;52.832;13.816;2023-04-15T00:23:14;100528.78;;;21.33;46.77
17254;BME280;32542;52.832;13.816;2023-04-15T00:26:17;100528.84;;;21.32;46.84
17254;BME280;32542;52.832;13.816;2023-04-15T00:29:23;100530.59;;;21.33;46.83
17254;BME280;32542;52.832;13.816;2023-04-15T00:32:26;100526.19;;;21.32;46.78
17254;BME280;32542;52.832;13.816;2023-04-15T00:35:30;100529.81;;;21.31;46.87
17254;BME280;32542;52.832;13.816;2023-04-15T00:38:36;100528.06;;;21.30;46.92
17254;BME280;32542;52.832;13.816;2023-04-15T00:41:39;100529.88;;;21.29;46.93
17254;BME280;32542;52.832;13.816;2023-04-15T00:44:42;100526.38;;;21.29;46.99
17254;BME280;32542;52.832;13.816;2023-04-15T00:47:45;100521.19;;;21.26;47.02
17254;BME280;32542;52.832;13.816;2023-04-15T00:50:49;100524.81;;;21.25;47.09
17254;BME280;32542;52.832;13.816;2023-04-15T00:53:53;100529.28;;;21.24;47.04
17254;BME280;32542;52.832;13.816;2023-04-15T00:56:56;100516.06;;;21.23;47.06
17254;BME280;32542;52.832;13.816;2023-04-15T01:00:00;100512.44;;;21.24;47.08
17254;BME280;32542;52.832;13.816;2023-04-15T01:03:03;100513.38;;;21.23;46.93
17254;BME280;32542;52.832;13.816;2023-04-15T01:06:06;100515.19;;;21.22;46.99
17254;BME280;32542;52.832;13.816;2023-04-15T01:09:11;100510.72;;;21.23;47.03
17254;BME280;32542;52.832;13.816;2023-04-15T01:12:14;100511.66;;;21.22;47.00
17254;BME280;32542;52.832;13.816;2023-04-15T01:15:19;100505.47;;;21.21;47.13
17254;BME280;32542;52.832;13.816;2023-04-15T01:18:22;100507.25;;;21.21;47.11
17254;BME280;32542;52.832;13.816;2023-04-15T01:21:25;100507.44;;;21.18;47.18
17254;BME280;32542;52.832;13.816;2023-04-15T01:24:31;100516.34;;;21.17;47.29
17254;BME280;32542;52.832;13.816;2023-04-15T01:27:38;100508.38;;;21.17;47.18
17254;BME280;32542;52.832;13.816;2023-04-15T01:30:41;100511.03;;;21.17;47.08
17254;BME280;32542;52.832;13.816;2023-04-15T01:33:45;100506.66;;;21.16;47.23
17254;BME280;32542;52.832;13.816;2023-04-15T01:36:48;100504.88;;;21.16;47.17
17254;BME280;32542;52.832;13.816;2023-04-15T01:39:51;100508.38;;;21.17;47.05
17254;BME280;32542;52.832;13.816;2023-04-15T01:42:57;100503.03;;;21.17;47.10
17254;BME280;32542;52.832;13.816;2023-04-15T01:46:01;100504.88;;;21.16;46.96
17254;BME280;32542;52.832;13.816;2023-04-15T01:49:05;100505.69;;;21.17;47.15
17254;BME280;32542;52.832;13.816;2023-04-15T01:52:09;100493.34;;;21.16;47.12
17254;BME280;32542;52.832;13.816;2023-04-15T01:55:14;100505.69;;;21.17;47.06
17254;BME280;32542;52.832;13.816;2023-04-15T01:58:20;100500.38;;;21.17;47.04
17254;BME280;32542;52.832;13.816;2023-04-15T02:01:23;100500.38;;;21.17;47.15
17254;BME280;32542;52.832;13.816;2023-04-15T02:04:26;100493.34;;;21.16;47.09
17254;BME280;32542;52.832;13.816;2023-04-15T02:07:33;100498.69;;;21.16;47.04
17254;BME280;32542;52.832;13.816;2023-04-15T02:10:36;100496.94;;;21.15;47.00
17254;BME280;32542;52.832;13.816;2023-04-15T02:13:40;100500.56;;;21.14;47.24
17254;BME280;32542;52.832;13.816;2023-04-15T02:16:43;100492.66;;;21.12;47.18
17254;BME280;32542;52.832;13.816;2023-04-15T02:19:48;100500.56;;;21.14;47.04
17254;BME280;32542;52.832;13.816;2023-04-15T02:22:51;100499.69;;;21.13;47.07
17254;BME280;32542;52.832;13.816;2023-04-15T02:25:54;100497.91;;;21.14;47.13
17254;BME280;32542;52.832;13.816;2023-04-15T02:28:59;100499.69;;;21.13;47.16
17254;BME280;32542;52.832;13.816;2023-04-15T02:32:02;100500.56;;;21.14;47.12
17254;BME280;32542;52.832;13.816;2023-04-15T02:35:06;100499.69;;;21.13;47.08
17254;BME280;32542;52.832;13.816;2023-04-15T02:38:10;100494.38;;;21.13;47.04
17254;BME280;32542;52.832;13.816;2023-04-15T02:41:13;100495.22;;;21.14;46.92
17254;BME280;32542;52.832;13.816;2023-04-15T02:44:19;100502.25;;;21.15;47.00
17254;BME280;32542;52.832;13.816;2023-04-15T02:47:26;100499.53;;;21.16;46.96
17254;BME280;32542;52.832;13.816;2023-04-15T02:50:29;100501.25;;;21.17;46.94
17254;BME280;32542;52.832;13.816;2023-04-15T02:53:32;100502.97;;;21.18;46.94
17254;BME280;32542;52.832;13.816;2023-04-15T02:56:35;100506.41;;;21.20;46.94
17254;BME280;32542;52.832;13.816;2023-04-15T02:59:39;100506.25;;;21.23;46.81
17254;BME280;32542;52.832;13.816;2023-04-15T03:02:45;100495.59;;;21.23;46.82
17254;BME280;32542;52.832;13.816;2023-04-15T03:05:50;100508.84;;;21.25;46.77
17254;BME280;32542;52.832;13.816;2023-04-15T03:08:53;100501.63;;;21.27;46.72
17254;BME280;32542;52.832;13.816;2023-04-15T03:11:57;100506.97;;;21.27;46.69
17254;BME280;32542;52.832;13.816;2023-04-15T03:15:02;100505.06;;;21.29;46.65
17254;BME280;32542;52.832;13.816;2023-04-15T03:18:10;100506.78;;;21.30;46.65
17254;BME280;32542;52.832;13.816;2023-04-15T03:21:14;100501.44;;;21.30;46.81
17254;BME280;32542;52.832;13.816;2023-04-15T03:24:19;100502.31;;;21.30;46.75
17254;BME280;32542;52.832;13.816;2023-04-15T03:27:22;100513.84;;;21.31;46.68
17254;BME280;32542;52.832;13.816;2023-04-15T03:30:30;100498.72;;;21.31;46.69
17254;BME280;32542;52.832;13.816;2023-04-15T03:33:32;100500.44;;;21.32;46.60
17254;BME280;32542;52.832;13.816;2023-04-15T03:36:35;100496.97;;;21.30;46.68
17254;BME280;32542;52.832;13.816;2023-04-15T03:39:38;100504.81;;;21.33;46.69
17254;BME280;32542;52.832;13.816;2023-04-15T03:42:42;100510.22;;;21.32;46.65
17254;BME280;32542;52.832;13.816;2023-04-15T03:45:46;100504.88;;;21.32;46.70
17254;BME280;32542;52.832;13.816;2023-04-15T03:48:49;100499.56;;;21.32;46.60
17254;BME280;32542;52.832;13.816;2023-04-15T03:51:52;100504.88;;;21.32;46.71
17254;BME280;32542;52.832;13.816;2023-04-15T03:54:55;100509.38;;;21.31;46.64
17254;BME280;32542;52.832;13.816;2023-04-15T03:57:58;100507.53;;;21.32;46.64
17254;BME280;32542;52.832;13.816;2023-04-15T04:01:02;100514.69;;;21.31;46.68
17254;BME280;32542;52.832;13.816;2023-04-15T04:04:05;100523.63;;;21.30;46.69
17254;BME280;32542;52.832;13.816;2023-04-15T04:07:14;100517.41;;;21.30;46.63
17254;BME280;32542;52.832;13.816;2023-04-15T04:10:17;100519.16;;;21.31;46.66
17254;BME280;32542;52.832;13.816;2023-04-15T04:13:20;100522.75;;;21.30;46.63
17254;BME280;32542;52.832;13.816;2023-04-15T04:16:24;100529.81;;;21.31;46.62
17254;BME280;32542;52.832;13.816;2023-04-15T04:19:27;100529.81;;;21.31;46.64
17254;BME280;32542;52.832;13.816;2023-04-15T04:22:31;100535.13;;;21.31;46.59
17254;BME280;32542;52.832;13.816;2023-04-15T04:25:38;100529.81;;;21.31;46.69
17254;BME280;32542;52.832;13.816;2023-04-15T04:28:42;100532.53;;;21.29;46.62
17254;BME280;32542;52.832;13.816;2023-04-15T04:31:46;100540.53;;;21.29;46.66
17254;BME280;32542;52.832;13.816;2023-04-15T04:34:49;100533.41;;;21.30;46.66
17254;BME280;32542;52.832;13.816;2023-04-15T04:37:52;100532.53;;;21.29;46.64
17254;BME280;32542;52.832;13.816;2023-04-15T04:40:55;100536.16;;;21.28;46.74
17254;BME280;32542;52.832;13.816;2023-04-15T04:43:58;100535.28;;;21.28;46.72
17254;BME280;32542;52.832;13.816;2023-04-15T04:47:03;100541.47;;;21.28;46.69
17254;BME280;32542;52.832;13.816;2023-04-15T04:50:07;100539.69;;;21.29;46.69
17254;BME280;32542;52.832;13.816;2023-04-15T04:53:10;100542.34;;;21.29;46.70
17254;BME280;32542;52.832;13.816;2023-04-15T04:56:13;100545.94;;;21.28;46.65
17254;BME280;32542;52.832;13.816;2023-04-15T04:59:16;100553.84;;;21.29;46.69
17254;BME280;32542;52.832;13.816;2023-04-15T05:02:21;100553.00;;;21.29;46.67
17254;BME280;32542;52.832;13.816;2023-04-15T05:05:24;100558.34;;;21.29;46.67
17254;BME280;32542;52.832;13.816;2023-04-15T05:08:27;100557.47;;;21.28;46.76
17254;BME280;32542;52.832;13.816;2023-04-15T05:11:30;100558.34;;;21.29;46.68
17254;BME280;32542;52.832;13.816;2023-04-15T05:14:33;100560.13;;;21.28;46.63
17254;BME280;32542;52.832;13.816;2023-04-15T05:17:38;100559.16;;;21.29;46.71
17254;BME280;32542;52.832;13.816;2023-04-15T05:20:41;100567.09;;;21.31;46.61
17254;BME280;32542;52.832;13.816;2023-04-15T05:23:43;100562.63;;;21.31;46.57
17254;BME280;32542;52.832;13.816;2023-04-15T05:26:47;100558.16;;;21.32;46.64
17254;BME280;32542;52.832;13.816;2023-04-15T05:29:49;100553.69;;;21.32;46.61
17254;BME280;32542;52.832;13.816;2023-04-15T05:32:54;100556.25;;;21.34;46.56
17254;BME280;32542;52.832;13.816;2023-04-15T05:35:57;100556.25;;;21.34;46.55
17254;BME280;32542;52.832;13.816;2023-04-15T05:39:00;100570.44;;;21.34;46.57
17254;BME280;32542;52.832;13.816;2023-04-15T05:42:03;100566.00;;;21.35;46.60
17254;BME280;32542;52.832;13.816;2023-04-15T05:45:07;100568.66;;;21.35;46.52
17254;BME280;32542;52.832;13.816;2023-04-15T05:48:11;100573.03;;;21.36;46.56
17254;BME280;32542;52.832;13.816;2023-04-15T05:51:14;100578.44;;;21.34;46.70
17254;BME280;32542;52.832;13.816;2023-04-15T05:54:18;100569.56;;;21.34;46.60
17254;BME280;32542;52.832;13.816;2023-04-15T05:57:22;100577.50;;;21.35;46.69
17254;BME280;32542;52.832;13.816;2023-04-15T06:00:25;100571.31;;;21.35;46.54
17254;BME280;32542;52.832;13.816;2023-04-15T06:03:29;100570.44;;;21.34;46.62
17254;BME280;32542;52.832;13.816;2023-04-15T06:06:32;100569.56;;;21.34;46.62
17254;BME280;32542;52.832;13.816;2023-04-15T06:09:35;100580.22;;;21.34;46.66
17254;BME280;32542;52.832;13.816;2023-04-15T06:12:38;100579.31;;;21.35;46.61
17254;BME280;32542;52.832;13.816;2023-04-15T06:15:41;100584.63;;;21.35;46.67
17254;BME280;32542;52.832;13.816;2023-04-15T06:18:46;100584.63;;;21.35;46.62
17254;BME280;32542;52.832;13.816;2023-04-15T06:21:49;100582.91;;;21.34;46.76
17254;BME280;32542;52.832;13.816;2023-04-15T06:24:52;100582.91;;;21.34;46.65
17254;BME280;32542;52.832;13.816;2023-04-15T06:27:55;100582.06;;;21.33;46.69
17254;BME280;32542;52.832;13.816;2023-04-15T06:30:57;100592.72;;;21.33;46.73
17254;BME280;32542;52.832;13.816;2023-04-15T06:34:03;100590.06;;;21.33;46.64
17254;BME280;32542;52.832;13.816;2023-04-15T06:37:06;100592.78;;;21.32;46.59
17254;BME280;32542;52.832;13.816;2023-04-15T06:40:11;100591.84;;;21.33;46.73
17254;BME280;32542;52.832;13.816;2023-04-15T06:43:14;100597.19;;;21.33;46.63
17254;BME280;32542;52.832;13.816;2023-04-15T06:46:17;100596.22;;;21.34;46.61
17254;BME280;32542;52.832;13.816;2023-04-15T06:49:22;100596.22;;;21.34;46.64
17254;BME280;32542;52.832;13.816;2023-04-15T06:52:24;100607.75;;;21.34;46.67
17254;BME280;32542;52.832;13.816;2023-04-15T06:55:27;100605.06;;;21.34;46.71
17254;BME280;32542;52.832;13.816;2023-04-15T06:58:32;100607.84;;;21.33;46.61
17254;BME280;32542;52.832;13.816;2023-04-15T07:01:35;100605.06;;;21.34;46.70
17254;BME280;32542;52.832;13.816;2023-04-15T07:04:39;100611.28;;;21.35;46.66
17254;BME280;32542;52.832;13.816;2023-04-15T07:07:42;100613.06;;;21.34;46.57
17254;BME280;32542;52.832;13.816;2023-04-15T07:10:46;100622.84;;;21.34;46.74
17254;BME280;32542;52.832;13.816;2023-04-15T07:13:49;100623.72;;;21.34;46.74
17254;BME280;32542;52.832;13.816;2023-04-15T07:16:52;100621.06;;;21.34;46.75
17254;BME280;32542;52.832;13.816;2023-04-15T07:19:56;100621.06;;;21.34;46.64
17254;BME280;32542;52.832;13.816;2023-04-15T07:22:59;100611.28;;;21.35;46.71
17254;BME280;32542;52.832;13.816;2023-04-15T07:26:02;100621.94;;;21.35;46.58
17254;BME280;32542;52.832;13.816;2023-04-15T07:29:05;100620.97;;;21.36;46.63
17254;BME280;32542;52.832;13.816;2023-04-15T07:32:08;100615.63;;;21.36;46.60
17254;BME280;32542;52.832;13.816;2023-04-15T07:35:13;100628.03;;;21.37;46.70
17254;BME280;32542;52.832;13.816;2023-04-15T07:38:16;100631.56;;;21.37;46.67
17254;BME280;32542;52.832;13.816;2023-04-15T07:41:19;100636.03;;;21.37;46.70
17254;BME280;32542;52.832;13.816;2023-04-15T07:44:22;100636.94;;;21.36;46.63
17254;BME280;32542;52.832;13.816;2023-04-15T07:47:25;100637.72;;;21.38;46.75
17254;BME280;32542;52.832;13.816;2023-04-15T07:50:30;100630.69;;;21.37;46.64
17254;BME280;32542;52.832;13.816;2023-04-15T07:53:33;100643.16;;;21.36;46.67
17254;BME280;32542;52.832;13.816;2023-04-15T07:56:36;100644.00;;;21.37;46.68
17254;BME280;32542;52.832;13.816;2023-04-15T07:59:39;100643.06;;;21.38;46.66
17254;BME280;32542;52.832;13.816;2023-04-15T08:02:42;100648.38;;;21.38;46.55
17254;BME280;32542;52.832;13.816;2023-04-15T08:05:48;100648.31;;;21.39;46.61
17254;BME280;32542;52.832;13.816;2023-04-15T08:08:51;100655.44;;;21.39;46.61
17254;BME280;32542;52.832;13.816;2023-04-15T08:11:55;100649.25;;;21.38;46.71
17254;BME280;32542;52.832;13.816;2023-04-15T08:14:58;100661.69;;;21.38;46.80
17254;BME280;32542;52.832;13.816;2023-04-15T08:18:02;100654.56;;;21.38;46.55
17254;BME280;32542;52.832;13.816;2023-04-15T08:21:07;100659.91;;;21.38;46.48
17254;BME280;32542;52.832;13.816;2023-04-15T08:24:10;100651.03;;;21.38;46.49
17254;BME280;32542;52.832;13.816;2023-04-15T08:27:13;100651.03;;;21.38;46.55
17254;BME280;32542;52.832;13.816;2023-04-15T08:30:16;100655.59;;;21.36;46.45
17254;BME280;32542;52.832;13.816;2023-04-15T08:33:19;100652.16;;;21.34;46.60
17254;BME280;32542;52.832;13.816;2023-04-15T08:36:24;100655.91;;;21.30;46.52
17254;BME280;32542;52.832;13.816;2023-04-15T08:39:27;100656.09;;;21.27;46.53
17254;BME280;32542;52.832;13.816;2023-04-15T08:42:31;100655.22;;;21.26;46.60
17254;BME280;32542;52.832;13.816;2023-04-15T08:45:38;100659.00;;;21.22;46.43
17254;BME280;32542;52.832;13.816;2023-04-15T08:48:42;100659.13;;;21.19;46.38
17254;BME280;32542;52.832;13.816;2023-04-15T08:51:47;100657.47;;;21.17;46.22
17254;BME280;32542;52.832;13.816;2023-04-15T08:54:51;100657.56;;;21.15;46.20
17254;BME280;32542;52.832;13.816;2023-04-15T08:57:58;100659.44;;;21.13;46.29
17254;BME280;32542;52.832;13.816;2023-04-15T09:01:01;100663.06;;;21.12;46.19
17254;BME280;32542;52.832;13.816;2023-04-15T09:04:05;100668.44;;;21.11;46.17
17254;BME280;32542;52.832;13.816;2023-04-15T09:07:10;100680.06;;;21.10;46.00
17254;BME280;32542;52.832;13.816;2023-04-15T09:10:13;100673.00;;;21.09;46.05
17254;BME280;32542;52.832;13.816;2023-04-15T09:13:16;100681.94;;;21.08;45.95
17254;BME280;32542;52.832;13.816;2023-04-15T09:16:19;100672.06;;;21.10;45.96
17254;BME280;32542;52.832;13.816;2023-04-15T09:19:24;100678.97;;;21.14;45.77
17254;BME280;32542;52.832;13.816;2023-04-15T09:22:32;100679.66;;;21.17;45.78
17254;BME280;32542;52.832;13.816;2023-04-15T09:25:35;100686.53;;;21.21;45.75
17254;BME280;32542;52.832;13.816;2023-04-15T09:28:41;100688.19;;;21.24;45.64
17254;BME280;32542;52.832;13.816;2023-04-15T09:31:44;100688.06;;;21.27;45.59
17254;BME280;32542;52.832;13.816;2023-04-15T09:34:47;100696.81;;;21.29;45.58
17254;BME280;32542;52.832;13.816;2023-04-15T09:37:52;100694.94;;;21.31;45.80
17254;BME280;32542;52.832;13.816;2023-04-15T09:40:56;100703.72;;;21.33;45.89
17254;BME280;32542;52.832;13.816;2023-04-15T09:43:59;100697.53;;;21.32;45.88
17254;BME280;32542;52.832;13.816;2023-04-15T09:47:03;100701.84;;;21.35;45.78
17254;BME280;32542;52.832;13.816;2023-04-15T09:50:06;100705.28;;;21.37;45.89
17254;BME280;32542;52.832;13.816;2023-04-15T09:53:15;100716.72;;;21.39;46.00
17254;BME280;32542;52.832;13.816;2023-04-15T09:56:21;100714.94;;;21.39;46.17
17254;BME280;32542;52.832;13.816;2023-04-15T09:59:25;100718.38;;;21.41;46.07
17254;BME280;32542;52.832;13.816;2023-04-15T10:02:28;100719.25;;;21.42;46.09
17254;BME280;32542;52.832;13.816;2023-04-15T10:05:32;100715.63;;;21.43;46.17
17254;BME280;32542;52.832;13.816;2023-04-15T10:08:37;100720.03;;;21.44;46.13
17254;BME280;32542;52.832;13.816;2023-04-15T10:11:41;100722.69;;;21.44;46.26
17254;BME280;32542;52.832;13.816;2023-04-15T10:14:48;100728.00;;;21.44;46.25
17254;BME280;32542;52.832;13.816;2023-04-15T10:17:55;100726.28;;;21.43;46.41
17254;BME280;32542;52.832;13.816;2023-04-15T10:21:00;100728.00;;;21.44;46.37
17254;BME280;32542;52.832;13.816;2023-04-15T10:24:05;100725.34;;;21.44;46.56
17254;BME280;32542;52.832;13.816;2023-04-15T10:27:09;100728.94;;;21.43;46.56
17254;BME280;32542;52.832;13.816;2023-04-15T10:30:12;100738.66;;;21.44;46.48
17254;BME280;32542;52.832;13.816;2023-04-15T10:33:20;100727.16;;;21.43;46.58
17254;BME280;32542;52.832;13.816;2023-04-15T10:36:23;100729.72;;;21.45;46.63
17254;BME280;32542;52.832;13.816;2023-04-15T10:39:41;100727.06;;;21.45;46.69
17254;BME280;32542;52.832;13.816;2023-04-15T10:42:45;100731.47;;;21.46;46.71
17254;BME280;32542;52.832;13.816;2023-04-15T10:45:48;100734.19;;;21.44;46.74
17254;BME280;32542;52.832;13.816;2023-04-15T10:48:52;100740.38;;;21.45;46.82
17254;BME280;32542;52.832;13.816;2023-04-15T10:51:57;100732.38;;;21.45;46.86
17254;BME280;32542;52.832;13.816;2023-04-15T10:55:12;100735.03;;;21.45;46.93
17254;BME280;32542;52.832;13.816;2023-04-15T10:58:16;100738.66;;;21.44;46.97
17254;BME280;32542;52.832;13.816;2023-04-15T11:01:19;100741.25;;;21.45;46.96
17254;BME280;32542;52.832;13.816;2023-04-15T11:04:52;100741.25;;;21.45;46.95
17254;BME280;32542;52.832;13.816;2023-04-15T11:07:56;100742.16;;;21.44;46.91
17254;BME280;32542;52.832;13.816;2023-04-15T11:11:00;100746.56;;;21.45;46.97
17254;BME280;32542;52.832;13.816;2023-04-15T11:14:03;100751.91;;;21.45;46.99
17254;BME280;32542;52.832;13.816;2023-04-15T11:17:06;100747.44;;;21.46;46.94
17254;BME280;32542;52.832;13.816;2023-04-15T11:20:13;100750.03;;;21.47;47.02
17254;BME280;32542;52.832;13.816;2023-04-15T11:23:18;100759.81;;;21.47;46.97
17254;BME280;32542;52.832;13.816;2023-04-15T11:26:25;100757.13;;;21.47;47.02
17254;BME280;32542;52.832;13.816;2023-04-15T11:29:29;100766.94;;;21.46;47.03
17254;BME280;32542;52.832;13.816;2023-04-15T11:32:33;100774.91;;;21.46;47.05
17254;BME280;32542;52.832;13.816;2023-04-15T11:35:35;100775.78;;;21.47;47.16
17254;BME280;32542;52.832;13.816;2023-04-15T11:38:41;100774.91;;;21.46;47.19
17254;BME280;32542;52.832;13.816;2023-04-15T11:41:46;100782.06;;;21.46;47.24
17254;BME280;32542;52.832;13.816;2023-04-15T11:44:49;100786.44;;;21.47;47.23
17254;BME280;32542;52.832;13.816;2023-04-15T11:47:52;100791.78;;;21.47;47.16
17254;BME280;32542;52.832;13.816;2023-04-15T11:50:56;100797.09;;;21.47;47.24
17254;BME280;32542;52.832;13.816;2023-04-15T11:53:59;100787.31;;;21.47;47.12
17254;BME280;32542;52.832;13.816;2023-04-15T11:57:04;100797.88;;;21.49;47.22
17254;BME280;32542;52.832;13.816;2023-04-15T12:00:08;100797.03;;;21.48;47.22
17254;BME280;32542;52.832;13.816;2023-04-15T12:03:12;100801.50;;;21.48;47.33
17254;BME280;32542;52.832;13.816;2023-04-15T12:06:18;100805.88;;;21.49;47.33
17254;BME280;32542;52.832;13.816;2023-04-15T12:09:21;100804.19;;;21.48;47.27
17254;BME280;32542;52.832;13.816;2023-04-15T12:12:27;100808.53;;;21.49;47.32
17254;BME280;32542;52.832;13.816;2023-04-15T12:15:31;100802.34;;;21.48;47.35
17254;BME280;32542;52.832;13.816;2023-04-15T12:18:36;100798.84;;;21.48;47.35
17254;BME280;32542;52.832;13.816;2023-04-15T12:21:42;100804.19;;;21.48;47.33
17254;BME280;32542;52.832;13.816;2023-04-15T12:24:45;100813.00;;;21.48;47.50
17254;BME280;32542;52.832;13.816;2023-04-15T12:27:51;100812.94;;;21.50;47.26
17254;BME280;32542;52.832;13.816;2023-04-15T12:30:55;100815.63;;;21.50;47.33
17254;BME280;32542;52.832;13.816;2023-04-15T12:34:00;100814.66;;;21.51;47.29
17254;BME280;32542;52.832;13.816;2023-04-15T12:37:05;100822.66;;;21.51;47.28
17254;BME280;32542;52.832;13.816;2023-04-15T12:40:09;100826.19;;;21.51;47.42
17254;BME280;32542;52.832;13.816;2023-04-15T12:43:13;100826.19;;;21.51;47.37
17254;BME280;32542;52.832;13.816;2023-04-15T12:46:16;100827.06;;;21.52;47.45
17254;BME280;32542;52.832;13.816;2023-04-15T12:49:19;100827.06;;;21.52;47.54
17254;BME280;32542;52.832;13.816;2023-04-15T12:52:22;100835.97;;;21.51;47.62
17254;BME280;32542;52.832;13.816;2023-04-15T12:55:25;100837.72;;;21.52;47.77
17254;BME280;32542;52.832;13.816;2023-04-15T12:58:29;100847.41;;;21.53;48.00
17254;BME280;32542;52.832;13.816;2023-04-15T13:01:32;100842.03;;;21.54;48.21
17254;BME280;32542;52.832;13.816;2023-04-15T13:04:35;100847.38;;;21.54;48.19
17254;BME280;32542;52.832;13.816;2023-04-15T13:07:38;100848.19;;;21.55;48.20
17254;BME280;32542;52.832;13.816;2023-04-15T13:10:42;100847.38;;;21.54;48.33
17254;BME280;32542;52.832;13.816;2023-04-15T13:13:46;100853.53;;;21.55;48.52
17254;BME280;32542;52.832;13.816;2023-04-15T13:16:49;100858.88;;;21.55;48.73
17254;BME280;32542;52.832;13.816;2023-04-15T13:19:52;100863.28;;;21.56;48.97
17254;BME280;32542;52.832;13.816;2023-04-15T13:22:55;100855.28;;;21.56;49.04
17254;BME280;32542;52.832;13.816;2023-04-15T13:25:58;100868.59;;;21.56;49.11
17254;BME280;32542;52.832;13.816;2023-04-15T13:29:02;100864.13;;;21.56;49.23
17254;BME280;32542;52.832;13.816;2023-04-15T13:32:05;100869.38;;;21.58;49.33
17254;BME280;32542;52.832;13.816;2023-04-15T13:35:08;100869.38;;;21.58;49.44
17254;BME280;32542;52.832;13.816;2023-04-15T13:38:11;100878.16;;;21.60;49.47
17254;BME280;32542;52.832;13.816;2023-04-15T13:41:14;100873.72;;;21.60;49.58
17254;BME280;32542;52.832;13.816;2023-04-15T13:44:18;100876.28;;;21.62;49.58
17254;BME280;32542;52.832;13.816;2023-04-15T13:47:23;100874.56;;;21.61;49.55
17254;BME280;32542;52.832;13.816;2023-04-15T13:50:26;100879.91;;;21.61;49.58
17254;BME280;32542;52.832;13.816;2023-04-15T13:53:29;100889.69;;;21.60;49.61
17254;BME280;32542;52.832;13.816;2023-04-15T13:56:39;100891.41;;;21.61;49.65
17254;BME280;32542;52.832;13.816;2023-04-15T13:59:44;100888.81;;;21.60;49.59
17254;BME280;32542;52.832;13.816;2023-04-15T14:02:47;100887.94;;;21.59;49.59
17254;BME280;32542;52.832;13.816;2023-04-15T14:05:50;100894.16;;;21.60;49.51
17254;BME280;32542;52.832;13.816;2023-04-15T14:08:56;100894.16;;;21.60;49.56
17254;BME280;32542;52.832;13.816;2023-04-15T14:11:59;100901.22;;;21.61;49.50
17254;BME280;32542;52.832;13.816;2023-04-15T14:15:05;100914.56;;;21.61;49.46
17254;BME280;32542;52.832;13.816;2023-04-15T14:18:08;100911.00;;;21.60;49.43
17254;BME280;32542;52.832;13.816;2023-04-15T14:21:11;100911.88;;;21.61;49.48
17254;BME280;32542;52.832;13.816;2023-04-15T14:24:14;100918.91;;;21.62;49.50
17254;BME280;32542;52.832;13.816;2023-04-15T14:27:17;100915.47;;;21.60;49.53
17254;BME280;32542;52.832;13.816;2023-04-15T14:30:21;100922.53;;;21.61;49.62
17254;BME280;32542;52.832;13.816;2023-04-15T14:33:24;100924.34;;;21.60;49.53
17254;BME280;32542;52.832;13.816;2023-04-15T14:36:27;100933.22;;;21.61;49.46
17254;BME280;32542;52.832;13.816;2023-04-15T14:39:30;100933.22;;;21.61;49.62
17254;BME280;32542;52.832;13.816;2023-04-15T14:42:33;100932.34;;;21.60;49.62
17254;BME280;32542;52.832;13.816;2023-04-15T14:45:37;100941.19;;;21.61;49.61
17254;BME280;32542;52.832;13.816;2023-04-15T14:48:45;100933.22;;;21.61;49.69
17254;BME280;32542;52.832;13.816;2023-04-15T14:51:48;100949.19;;;21.61;49.80
17254;BME280;32542;52.832;13.816;2023-04-15T14:54:51;100947.38;;;21.61;49.83
17254;BME280;32542;52.832;13.816;2023-04-15T14:57:54;100949.97;;;21.63;49.70
17254;BME280;32542;52.832;13.816;2023-04-15T15:00:58;100957.03;;;21.64;49.69
17254;BME280;32542;52.832;13.816;2023-04-15T15:04:02;100960.56;;;21.64;49.73
17254;BME280;32542;52.832;13.816;2023-04-15T15:07:05;100959.69;;;21.64;49.72
17254;BME280;32542;52.832;13.816;2023-04-15T15:10:09;100967.69;;;21.64;50.10
17254;BME280;32542;52.832;13.816;2023-04-15T15:13:12;100971.22;;;21.64;50.09
17254;BME280;32542;52.832;13.816;2023-04-15T15:16:16;100965.88;;;21.64;50.14
17254;BME280;32542;52.832;13.816;2023-04-15T15:19:19;100963.31;;;21.63;50.06
17254;BME280;32542;52.832;13.816;2023-04-15T15:22:22;100968.63;;;21.63;49.81
17254;BME280;32542;52.832;13.816;2023-04-15T15:25:26;100979.22;;;21.64;49.65
17254;BME280;32542;52.832;13.816;2023-04-15T15:28:29;100973.88;;;21.64;49.69
17254;BME280;32542;52.832;13.816;2023-04-15T15:32:01;100978.34;;;21.64;49.73
17254;BME280;32542;52.832;13.816;2023-04-15T15:35:05;100979.22;;;21.64;49.58
17254;BME280;32542;52.832;13.816;2023-04-15T15:38:10;100983.59;;;21.65;49.69
17254;BME280;32542;52.832;13.816;2023-04-15T15:41:13;100982.75;;;21.65;49.45
17254;BME280;32542;52.832;13.816;2023-04-15T15:44:16;100994.25;;;21.65;49.41
17254;BME280;32542;52.832;13.816;2023-04-15T15:47:21;100984.47;;;21.66;49.21
17254;BME280;32542;52.832;13.816;2023-04-15T15:50:24;100991.53;;;21.67;49.37